• Join FlightAware (Why Join?)
  • Login
  • US Flag 
01:18PM EDT


 

Airport Tracker/Info


-or-


 

Live Flight TrackerFlight Track Log ✈ ASA525 ✈ 01-May-2013 ✈ KBUR - KSEA

Flight Track Log - Related Links

Times and Time Zones

All times are in EDT time to prevent confusion due to time zone crossing. See the ASA525 flight status page for this flight to view local times or setup timezone preferences in your user account.

Time Position Orientation Groundspeed Altitude Reporting Facility
EDT Latitude Longitude Course Direction KTS MPH feet Rate Location/Type
02:03PM 34.1803 -118.3539 223° Southwest 161 185 34,000  Level Los Angeles Center
02:04PM 34.1381 -118.4014 223° Southwest 222 255 4,200 -13,320 Descending Los Angeles Center
02:05PM 34.1781 -118.4592 310° West 251 289 6,500 2,400 Climbing Los Angeles Center
02:06PM 34.2572 -118.4772 349° North 290 334 9,200 3,240 Climbing Los Angeles Center
02:07PM 34.3339 -118.5050 343° North 289 333 13,300 3,240 Climbing Los Angeles Center
02:08PM 34.4025 -118.5575 328° Northwest 294 338 15,900 1,740 Climbing Los Angeles Center
02:09PM 34.4781 -118.6153 328° Northwest 319 367 17,000 480 Climbing Los Angeles Center
02:10PM 34.5678 -118.6819 329° Northwest 317 365 17,000 600 Level Los Angeles Center
02:11PM 34.6447 -118.7403 328° Northwest 330 380 18,300 1,200 Climbing Los Angeles Center
02:12PM 34.7375 -118.8125 327° Northwest 395 455 19,500 1,740 Climbing Los Angeles Center
02:13PM 34.8433 -118.8769 333° Northwest 425 489 21,900 2,340 Climbing Los Angeles Center
02:14PM 34.9667 -118.9250 342° North 440 506 24,400 2,040 Climbing Los Angeles Center
02:15PM 35.0869 -118.9722 342° North 452 520 26,200 1,680 Climbing Los Angeles Center
02:16PM 35.2131 -119.0200 343° North 473 544 27,900 840 Climbing Los Angeles Center
02:17PM 35.3628 -119.0772 343° North 472 543 28,000 960 Climbing Los Angeles Center
02:18PM 35.4856 -119.1256 342° North 467 537 30,000 1,800 Climbing Los Angeles Center
02:20PM 35.6044 -119.1722 342° North 454 522 32,200 2,040 Climbing Los Angeles Center
02:20PM 35.6719 -119.1900 348° North 448 516 33,400 1,200 Climbing Oakland Center
02:21PM 35.7922 -119.2247 347° North 446 513 34,000 240 Climbing Oakland Center
02:22PM 35.9342 -119.2681 346° North 442 509 34,000  Level Oakland Center
02:23PM 36.0531 -119.3022 347° North 440 506 34,000  Level Oakland Center
02:24PM 36.1697 -119.3375 346° North 433 498 34,000  Level Oakland Center
02:25PM 36.2872 -119.3719 347° North 435 501 34,000  Level Oakland Center
02:26PM 36.4036 -119.4058 347° North 432 497 34,000  Level Oakland Center
02:27PM 36.5200 -119.4397 347° North 432 497 34,000  Level Oakland Center
02:28PM 36.6372 -119.4744 347° North 434 499 34,000  Level Oakland Center
02:29PM 36.7783 -119.5164 347° North 435 501 34,000  Level Oakland Center
02:30PM 36.8961 -119.5508 347° North 434 499 34,000  Level Oakland Center
02:31PM 37.0119 -119.5875 346° North 431 496 34,000  Level Oakland Center
02:32PM 37.1283 -119.6222 347° North 432 497 34,000  Level Oakland Center
02:33PM 37.2431 -119.6567 347° North 427 491 34,000  Level Oakland Center
02:34PM 37.3694 -119.6944 347° North 426 490 34,000  Level Oakland Center
02:35PM 37.4847 -119.7294 346° North 426 490 34,000  Level Oakland Center
02:36PM 37.5997 -119.7647 346° North 424 488 34,000  Level Oakland Center
02:38PM 37.7133 -119.7981 347° North 420 483 34,000  Level Oakland Center
02:39PM 37.8283 -119.8331 346° North 423 487 34,000  Level Oakland Center
02:40PM 37.9656 -119.8753 346° North 425 489 34,000  Level Oakland Center
02:41PM 38.0822 -119.9111 346° North 430 495 34,000  Level Oakland Center
02:42PM 38.1947 -119.9475 346° North 422 486 34,000  Level Oakland Center
02:43PM 38.3092 -119.9833 346° North 422 486 34,000  Level Oakland Center
02:44PM 38.4239 -120.0178 347° North 425 489 34,000  Level Oakland Center
02:45PM 38.5389 -120.0539 346° North 427 491 34,000  Level Oakland Center
02:46PM 38.6511 -120.0906 346° North 422 486 34,000  Level Oakland Center
02:47PM 38.7642 -120.1261 346° North 419 482 34,000  Level Oakland Center
02:48PM 38.8992 -120.1683 346° North 419 482 34,000  Level Oakland Center
02:49PM 39.0133 -120.2056 346° North 424 488 34,000  Level Oakland Center
02:50PM 39.1281 -120.2408 347° North 425 489 34,000  Level Oakland Center
02:51PM 39.2417 -120.2781 346° North 424 488 34,000  Level Oakland Center
02:52PM 39.3533 -120.3131 346° North 418 481 34,000  Level Oakland Center
02:53PM 39.4653 -120.3483 346° North 416 479 34,000  Level Oakland Center
02:54PM 39.5769 -120.3856 346° North 415 478 34,000  Level Oakland Center
02:55PM 39.7122 -120.4300 346° North 419 482 34,000  Level Oakland Center
02:56PM 39.8236 -120.4656 346° North 414 476 34,000  Level Oakland Center
02:57PM 39.9358 -120.5025 346° North 417 480 34,000  Level Oakland Center
02:58PM 40.0497 -120.5403 346° North 416 479 34,000  Level Oakland Center
02:59PM 40.1617 -120.5753 347° North 416 479 34,000  Level Oakland Center
03:00PM 40.2731 -120.6119 346° North 415 478 34,000  Level Oakland Center
03:01PM 40.3842 -120.6494 346° North 414 476 34,000  Level Oakland Center
03:02PM 40.4950 -120.6844 346° North 413 475 34,000  Level Oakland Center
03:03PM 40.6089 -120.7231 346° North 417 480 34,000  Level Oakland Center
03:04PM 40.7194 -120.7617 345° North 411 473 34,000  Level Seattle Center
03:05PM 40.8317 -120.7958 347° North 412 474 34,000  Level Seattle Center
03:06PM 40.9447 -120.8364 345° North 412 474 34,000  Level Seattle Center
03:07PM 41.0511 -120.8733 345° North 409 471 34,000  Level Seattle Center
03:08PM 41.1625 -120.9108 346° North 412 474 34,000  Level Seattle Center
03:09PM 41.2725 -120.9494 345° North 410 472 34,000  Level Seattle Center
03:10PM 41.3831 -120.9872 346° North 411 473 34,000  Level Seattle Center
03:11PM 41.5156 -121.0325 346° North 410 472 34,000  Level Seattle Center
03:12PM 41.6264 -121.0708 346° North 412 474 34,000  Level Seattle Center
03:13PM 41.7364 -121.1100 345° North 411 473 34,000  Level Seattle Center
03:14PM 41.8472 -121.1475 346° North 411 473 34,000  Level Seattle Center
03:15PM 41.9564 -121.1856 345° North 409 471 34,000  Level Seattle Center
03:16PM 42.0653 -121.2242 345° North 407 468 34,000  Level Seattle Center
03:17PM 42.1756 -121.2633 345° North 413 475 34,000  Level Seattle Center
03:18PM 42.2861 -121.3006 346° North 414 476 34,000  Level Seattle Center
03:19PM 42.4200 -121.3478 345° North 416 479 34,000  Level Seattle Center
03:20PM 42.5314 -121.3875 345° North 416 479 34,000  Level Seattle Center
03:21PM 42.6414 -121.4272 345° North 412 474 34,000  Level Seattle Center
03:22PM 42.7531 -121.4656 346° North 414 476 34,000  Level Seattle Center
03:23PM 42.8633 -121.5058 345° North 411 473 34,000  Level Seattle Center
03:24PM 42.9742 -121.5450 346° North 412 474 34,000  Level Seattle Center
03:25PM 43.0853 -121.5847 345° North 413 475 34,000  Level Seattle Center
03:26PM 43.1961 -121.6250 345° North 413 475 34,000  Level Seattle Center
03:27PM 43.3069 -121.6667 345° North 414 476 34,000  Level Seattle Center
03:29PM 43.4181 -121.7072 345° North 414 476 34,000  Level Seattle Center
03:30PM 43.5506 -121.7550 345° North 412 474 34,000  Level Seattle Center
03:31PM 43.6617 -121.7961 345° North 414 476 34,000  Level Seattle Center
03:32PM 43.7725 -121.8367 345° North 412 474 34,000  Level Seattle Center
03:33PM 43.8747 -121.8733 346° North 415 478 34,000  Level Seattle Center
03:34PM 44.0017 -121.9217 345° North 412 474 34,000  Level Seattle Center
03:35PM 44.1117 -121.9628 345° North 411 473 34,000  Level Seattle Center
03:36PM 44.2208 -122.0039 345° North 408 470 34,000  Level Seattle Center
03:37PM 44.3308 -122.0436 346° North 408 470 34,000  Level Seattle Center
03:38PM 44.4397 -122.0850 345° North 408 470 34,000  Level Seattle Center
03:39PM 44.5500 -122.1269 345° North 410 472 34,000  Level Seattle Center
03:40PM 44.6597 -122.1692 345° North 412 474 34,000  Level Seattle Center
03:41PM 44.7689 -122.2111 345° North 408 470 34,000  Level Seattle Center
03:42PM 44.8786 -122.2528 345° North 411 473 34,000  Level Seattle Center
03:43PM 45.0108 -122.3036 345° North 413 475 34,000  Level Seattle Center
03:44PM 45.1206 -122.3444 345° North 411 473 34,000  Level Seattle Center
03:45PM 45.2294 -122.3881 344° North 410 472 34,000  Level Seattle Center
03:46PM 45.3381 -122.4294 345° North 407 468 34,000  Level Seattle Center
03:47PM 45.4483 -122.4731 344° North 411 473 34,000  Level Seattle Center
03:48PM 45.5572 -122.5150 345° North 409 471 34,000  Level Seattle Center
03:49PM 45.6664 -122.5583 344° North 408 470 34,000 -480 Level Seattle Center
03:50PM 45.7767 -122.5992 346° North 412 474 33,100 -960 Descending Seattle Center
03:51PM 45.8875 -122.6239 351° North 406 467 32,100 -1,440 Descending Seattle Center
03:52PM 46.0178 -122.6572 350° North 399 459 30,200 -2,100 Descending Seattle Center
03:53PM 46.1208 -122.6817 351° North 380 437 27,900 -2,160 Descending Seattle Center
03:54PM 46.2111 -122.6986 353° North 372 428 25,900 -2,100 Descending Seattle Center
03:55PM 46.3072 -122.7169 352° North 355 409 23,700 -2,280 Descending Seattle Center
03:56PM 46.4208 -122.7161 360° North 344 396 21,300 -1,860 Descending Seattle Center
03:57PM 46.5103 -122.7164 360° North 328 377 20,000 -1,500 Descending Seattle Center
03:58PM 46.5906 -122.7133 North 296 341 18,300 -1,320 Descending Seattle Center
03:59PM 46.6583 -122.7728 329° Northwest 289 333 17,300 -1,500 Descending Seattle Center
03:59PM 46.6875 -122.7778 353° North 279 321 16,300 -2,160 Descending Seattle Center
04:00PM 46.7336 -122.7497 23° Northeast 292 336 15,300 -1,620 Descending Seattle Center
04:01PM 46.8042 -122.7094 21° North 283 326 13,600 -2,040 Descending Seattle Center
04:02PM 46.8689 -122.6353 38° Northeast 285 328 11,300 -1,920 Descending Seattle Center
04:03PM 46.9283 -122.5544 43° Northeast 271 312 9,900 -1,380 Descending Seattle Center
04:04PM 46.9803 -122.4875 41° Northeast 254 292 8,500 -1,080 Descending Seattle Center
04:05PM 47.0317 -122.4367 34° Northeast 236 272 7,900 -720 Descending Seattle Center
04:06PM 47.0814 -122.3967 29° Northeast 212 244 7,200 -780 Descending Seattle Center
04:06PM 47.0908 -122.3881 32° Northeast 218 251 7,000 -1,140 Descending Seattle Center
04:07PM 47.1353 -122.3542 27° Northeast 218 251 6,100 -1,140 Descending Seattle Center
04:07PM 47.1450 -122.3464 29° Northeast 223 257 5,900 -1,020 Descending Seattle Center
04:08PM 47.1942 -122.3156 23° Northeast 232 267 5,100 -900 Descending Seattle Center
04:08PM 47.2039 -122.3100 21° North 230 265 5,000 -720 Descending Seattle Center
04:09PM 47.2542 -122.3153 356° North 211 243 4,400 -900 Descending Seattle Center
04:09PM 47.2625 -122.3133 North 213 245 4,100 -1,380 Descending Seattle Center
04:10PM 47.3153 -122.3108 North 185 213 2,900 -1,140 Descending Seattle Center
04:11PM 47.3622 -122.3122 359° North 140 161 1,800 -780 Descending Seattle Center
04:12PM 47.3983 -122.3119 360° North 133 153 1,200 -660 Descending Seattle Center
04:13PM 47.4247 -122.3128 359° North 132 152 700 -840 Descending Seattle Center
04:13PM 47.4369 -122.3114 North 131 151 400 -360 Descending Seattle Center
04:14PM 47.4694 -122.3108 North 130 150 300 -120 Descending Seattle Center
04:16PM 47.4499 -122.3118 132° Southeast  Level Estimated